createdAt,value
2023-01-21T00:00:09.816Z,16.25
2023-01-21T00:15:11.920Z,12.25
2023-01-21T00:30:14.310Z,14.70
2023-01-21T00:45:16.376Z,14.40
2023-01-21T01:00:19.754Z,11.70
2023-01-21T01:15:21.715Z,14.57
2023-01-21T01:30:23.635Z,13.45
2023-01-21T01:45:25.757Z,13.90
2023-01-21T02:00:28.035Z,12.82
2023-01-21T02:15:41.435Z,12.77
2023-01-21T02:31:20.117Z,13.45
2023-01-21T02:46:29.098Z,19.60
2023-01-21T03:01:56.228Z,15.82
2023-01-21T03:17:07.899Z,16.08
2023-01-21T03:32:14.118Z,19.38
2023-01-21T03:47:23.627Z,28.55
2023-01-21T04:02:25.720Z,37.13
2023-01-21T04:17:28.621Z,36.80
2023-01-21T04:32:30.543Z,30.65
2023-01-21T04:47:32.497Z,33.85
2023-01-21T05:02:34.591Z,25.45
2023-01-21T05:17:36.538Z,36.70
2023-01-21T05:32:38.456Z,18.10
2023-01-21T05:47:40.819Z,15.73
2023-01-21T06:02:42.826Z,15.13
2023-01-21T06:17:47.288Z,11.10
2023-01-21T06:32:49.898Z,11.05
2023-01-21T06:47:51.841Z,12.38
2023-01-21T07:02:58.382Z,9.60
2023-01-21T07:18:00.550Z,10.55
2023-01-21T07:33:07.070Z,10.25
2023-01-21T07:48:10.018Z,5.55
2023-01-21T08:03:12.119Z,8.77
2023-01-21T08:18:14.063Z,7.35
2023-01-21T08:33:16.242Z,6.75
2023-01-21T08:48:18.173Z,6.05
2023-01-21T09:03:20.184Z,3.92
2023-01-21T09:18:22.112Z,4.93
2023-01-21T09:33:24.273Z,5.50
2023-01-21T09:48:36.864Z,6.30
2023-01-21T10:03:56.283Z,7.25
2023-01-21T10:19:01.577Z,8.20
2023-01-21T10:34:15.534Z,10.43
2023-01-21T10:49:41.571Z,11.23
2023-01-21T11:04:43.493Z,9.57
2023-01-21T11:19:58.946Z,14.05
2023-01-21T11:35:11.263Z,19.25
2023-01-21T11:50:16.808Z,20.35
2023-01-21T12:05:35.981Z,31.55
2023-01-21T12:21:19.200Z,30.55
2023-01-21T12:36:46.743Z,28.13
2023-01-21T12:52:12.775Z,34.35
2023-01-21T13:07:52.191Z,35.78
2023-01-21T13:23:31.333Z,38.10
2023-01-21T13:38:39.314Z,40.67
2023-01-21T13:54:06.000Z,36.17
2023-01-21T14:09:20.428Z,34.22
2023-01-21T14:24:44.337Z,39.42
2023-01-21T14:40:12.213Z,38.42
2023-01-21T14:55:43.418Z,41.58
2023-01-21T15:10:54.171Z,39.05
2023-01-21T15:26:18.230Z,38.55
2023-01-21T15:41:42.536Z,32.13
2023-01-21T15:57:00.793Z,35.78
2023-01-21T16:12:31.632Z,44.60
2023-01-21T16:27:34.974Z,53.22
2023-01-21T16:42:44.423Z,50.13
2023-01-21T16:57:51.350Z,47.13
2023-01-21T17:12:59.913Z,47.08
2023-01-21T17:28:16.936Z,48.15
2023-01-21T17:43:22.929Z,59.83
2023-01-21T17:58:43.413Z,46.63
2023-01-21T18:13:45.447Z,51.00
2023-01-21T18:28:47.493Z,50.67
2023-01-21T18:43:49.517Z,52.83
2023-01-21T18:58:51.512Z,45.10
2023-01-21T19:13:53.634Z,40.30
2023-01-21T19:28:55.712Z,39.03
2023-01-21T19:43:57.659Z,41.47
2023-01-21T19:58:59.920Z,39.08
2023-01-21T20:14:01.990Z,43.70
2023-01-21T20:29:06.871Z,46.83
2023-01-21T20:44:08.918Z,43.00
2023-01-21T20:59:10.967Z,48.08
2023-01-21T21:14:13.810Z,53.85
2023-01-21T21:29:15.968Z,60.80
2023-01-21T21:44:18.051Z,74.57
2023-01-21T21:59:20.086Z,79.78
2023-01-21T22:14:22.090Z,97.65
2023-01-21T22:29:24.015Z,89.32
2023-01-21T22:44:26.831Z,86.15
2023-01-21T22:59:28.847Z,84.90
2023-01-21T23:14:30.809Z,88.68
2023-01-21T23:29:32.912Z,95.05
2023-01-21T23:44:34.851Z,85.35
2023-01-21T23:59:36.925Z,85.18
